sensor_id;sensor_type;location;lat;lon;timestamp;pressure;altitude;pressure_sealevel;temperature;humidity
66547;BME280;53400;50.364;14.874;2023-04-24T00:00:37;97533.63;;;9.47;100.00
66547;BME280;53400;50.364;14.874;2023-04-24T00:03:24;97531.44;;;9.29;100.00
66547;BME280;53400;50.364;14.874;2023-04-24T00:05:50;97540.28;;;9.39;100.00
66547;BME280;53400;50.364;14.874;2023-04-24T00:08:17;97558.75;;;9.61;100.00
66547;BME280;53400;50.364;14.874;2023-04-24T00:10:44;97596.75;;;9.69;100.00
66547;BME280;53400;50.364;14.874;2023-04-24T00:13:10;97596.75;;;9.74;100.00
66547;BME280;53400;50.364;14.874;2023-04-24T00:15:36;97588.47;;;9.75;100.00
66547;BME280;53400;50.364;14.874;2023-04-24T00:18:02;97585.81;;;9.80;100.00
66547;BME280;53400;50.364;14.874;2023-04-24T00:20:29;97586.31;;;9.72;100.00
66547;BME280;53400;50.364;14.874;2023-04-24T00:23:05;97576.19;;;10.10;100.00
66547;BME280;53400;50.364;14.874;2023-04-24T00:25:31;97570.03;;;10.25;100.00
66547;BME280;53400;50.364;14.874;2023-04-24T00:27:58;97574.63;;;10.14;100.00
66547;BME280;53400;50.364;14.874;2023-04-24T00:30:24;97565.78;;;9.93;100.00
66547;BME280;53400;50.364;14.874;2023-04-24T00:32:50;97563.88;;;10.04;100.00
66547;BME280;53400;50.364;14.874;2023-04-24T00:35:16;97564.19;;;10.28;100.00
66547;BME280;53400;50.364;14.874;2023-04-24T00:37:42;97554.00;;;10.40;100.00
66547;BME280;53400;50.364;14.874;2023-04-24T00:40:09;97553.22;;;10.34;100.00
66547;BME280;53400;50.364;14.874;2023-04-24T00:42:35;97535.28;;;10.15;100.00
66547;BME280;53400;50.364;14.874;2023-04-24T00:45:04;97528.34;;;9.98;100.00
66547;BME280;53400;50.364;14.874;2023-04-24T00:47:31;97536.88;;;9.75;100.00
66547;BME280;53400;50.364;14.874;2023-04-24T00:49:58;97529.34;;;9.41;100.00
66547;BME280;53400;50.364;14.874;2023-04-24T00:52:25;97524.16;;;9.09;100.00
66547;BME280;53400;50.364;14.874;2023-04-24T00:54:51;97541.16;;;8.87;100.00
66547;BME280;53400;50.364;14.874;2023-04-24T00:57:17;97530.38;;;9.30;100.00
66547;BME280;53400;50.364;14.874;2023-04-24T00:59:44;97535.50;;;9.57;100.00
66547;BME280;53400;50.364;14.874;2023-04-24T01:02:11;97538.19;;;9.57;100.00
66547;BME280;53400;50.364;14.874;2023-04-24T01:04:41;97540.31;;;9.50;100.00
66547;BME280;53400;50.364;14.874;2023-04-24T01:07:08;97539.50;;;9.54;100.00
66547;BME280;53400;50.364;14.874;2023-04-24T01:09:36;97533.09;;;9.71;100.00
66547;BME280;53400;50.364;14.874;2023-04-24T01:12:02;97536.34;;;9.93;100.00
66547;BME280;53400;50.364;14.874;2023-04-24T01:14:28;97526.44;;;10.09;100.00
66547;BME280;53400;50.364;14.874;2023-04-24T01:16:55;97532.88;;;10.23;100.00
66547;BME280;53400;50.364;14.874;2023-04-24T01:19:24;97535.00;;;10.16;100.00
66547;BME280;53400;50.364;14.874;2023-04-24T01:21:51;97534.19;;;10.00;100.00
66547;BME280;53400;50.364;14.874;2023-04-24T01:24:20;97537.41;;;10.02;100.00
66547;BME280;53400;50.364;14.874;2023-04-24T01:26:46;97529.94;;;9.99;100.00
66547;BME280;53400;50.364;14.874;2023-04-24T01:29:12;97521.09;;;10.09;100.00
66547;BME280;53400;50.364;14.874;2023-04-24T01:31:39;97523.25;;;10.02;100.00
66547;BME280;53400;50.364;14.874;2023-04-24T01:34:05;97524.84;;;9.87;100.00
66547;BME280;53400;50.364;14.874;2023-04-24T01:36:32;97534.47;;;9.88;100.00
66547;BME280;53400;50.364;14.874;2023-04-24T01:38:58;97531.00;;;9.88;100.00
66547;BME280;53400;50.364;14.874;2023-04-24T01:41:26;97532.00;;;9.46;100.00
66547;BME280;53400;50.364;14.874;2023-04-24T01:43:53;97530.44;;;9.71;100.00
66547;BME280;53400;50.364;14.874;2023-04-24T01:46:19;97518.44;;;9.83;100.00
66547;BME280;53400;50.364;14.874;2023-04-24T01:48:45;97526.16;;;9.64;100.00
66547;BME280;53400;50.364;14.874;2023-04-24T01:51:11;97523.22;;;9.61;100.00
66547;BME280;53400;50.364;14.874;2023-04-24T01:53:37;97514.41;;;9.60;100.00
66547;BME280;53400;50.364;14.874;2023-04-24T01:56:03;97526.44;;;9.73;100.00
66547;BME280;53400;50.364;14.874;2023-04-24T01:58:31;97524.06;;;9.92;100.00
66547;BME280;53400;50.364;14.874;2023-04-24T02:00:57;97520.31;;;9.98;100.00
66547;BME280;53400;50.364;14.874;2023-04-24T02:03:25;97525.66;;;9.93;100.00
66547;BME280;53400;50.364;14.874;2023-04-24T02:05:51;97528.88;;;9.95;100.00
66547;BME280;53400;50.364;14.874;2023-04-24T02:08:16;97524.56;;;10.15;100.00
66547;BME280;53400;50.364;14.874;2023-04-24T02:10:42;97524.03;;;9.77;100.00
66547;BME280;53400;50.364;14.874;2023-04-24T02:13:08;97518.06;;;9.34;100.00
66547;BME280;53400;50.364;14.874;2023-04-24T02:15:35;97523.47;;;9.54;100.00
66547;BME280;53400;50.364;14.874;2023-04-24T02:18:01;97514.38;;;9.50;100.00
66547;BME280;53400;50.364;14.874;2023-04-24T02:20:27;97524.03;;;9.72;100.00
66547;BME280;53400;50.364;14.874;2023-04-24T02:22:53;97521.09;;;9.94;100.00
66547;BME280;53400;50.364;14.874;2023-04-24T02:25:19;97525.63;;;9.73;100.00
66547;BME280;53400;50.364;14.874;2023-04-24T02:27:45;97516.53;;;9.79;100.00
66547;BME280;53400;50.364;14.874;2023-04-24T02:30:12;97509.09;;;9.86;100.00
66547;BME280;53400;50.364;14.874;2023-04-24T02:32:39;97512.53;;;9.81;100.00
66547;BME280;53400;50.364;14.874;2023-04-24T02:35:06;97513.06;;;10.09;100.00
66547;BME280;53400;50.364;14.874;2023-04-24T02:37:32;97502.13;;;9.95;100.00
66547;BME280;53400;50.364;14.874;2023-04-24T02:39:58;97497.84;;;9.84;100.00
66547;BME280;53400;50.364;14.874;2023-04-24T02:42:24;97497.28;;;9.67;100.00
66547;BME280;53400;50.364;14.874;2023-04-24T02:44:49;97500.22;;;9.85;100.00
66547;BME280;53400;50.364;14.874;2023-04-24T02:47:17;97496.50;;;9.66;100.00
66547;BME280;53400;50.364;14.874;2023-04-24T02:49:44;97491.44;;;9.95;100.00
66547;BME280;53400;50.364;14.874;2023-04-24T02:52:10;97489.28;;;10.07;100.00
66547;BME280;53400;50.364;14.874;2023-04-24T02:54:36;97493.00;;;9.71;100.00
66547;BME280;53400;50.364;14.874;2023-04-24T02:57:02;97490.31;;;9.45;100.00
66547;BME280;53400;50.364;14.874;2023-04-24T02:59:28;97499.16;;;9.66;100.00
66547;BME280;53400;50.364;14.874;2023-04-24T03:01:54;97499.44;;;9.75;100.00
66547;BME280;53400;50.364;14.874;2023-04-24T03:04:20;97498.66;;;9.74;100.00
66547;BME280;53400;50.364;14.874;2023-04-24T03:06:49;97494.91;;;9.75;100.00
66547;BME280;53400;50.364;14.874;2023-04-24T03:09:18;97497.00;;;9.58;100.00
66547;BME280;53400;50.364;14.874;2023-04-24T03:11:44;97489.03;;;9.68;100.00
66547;BME280;53400;50.364;14.874;2023-04-24T03:14:10;97488.47;;;9.71;100.00
66547;BME280;53400;50.364;14.874;2023-04-24T03:16:36;97490.34;;;9.60;100.00
66547;BME280;53400;50.364;14.874;2023-04-24T03:19:02;97493.53;;;9.57;100.00
66547;BME280;53400;50.364;14.874;2023-04-24T03:21:28;97494.03;;;9.39;100.00
66547;BME280;53400;50.364;14.874;2023-04-24T03:23:55;97495.66;;;9.45;100.00
66547;BME280;53400;50.364;14.874;2023-04-24T03:26:22;97506.63;;;9.64;100.00
66547;BME280;53400;50.364;14.874;2023-04-24T03:28:48;97499.16;;;9.97;100.00
66547;BME280;53400;50.364;14.874;2023-04-24T03:31:14;97499.44;;;9.95;100.00
66547;BME280;53400;50.364;14.874;2023-04-24T03:33:40;97506.94;;;9.78;100.00
66547;BME280;53400;50.364;14.874;2023-04-24T03:36:07;97508.78;;;9.62;100.00
66547;BME280;53400;50.364;14.874;2023-04-24T03:38:33;97504.50;;;9.66;100.00
66547;BME280;53400;50.364;14.874;2023-04-24T03:41:00;97501.53;;;9.42;100.00
66547;BME280;53400;50.364;14.874;2023-04-24T03:43:26;97503.97;;;9.54;100.00
66547;BME280;53400;50.364;14.874;2023-04-24T03:45:53;97498.66;;;9.74;100.00
66547;BME280;53400;50.364;14.874;2023-04-24T03:48:19;97502.09;;;9.80;100.00
66547;BME280;53400;50.364;14.874;2023-04-24T03:50:45;97500.78;;;9.72;100.00
66547;BME280;53400;50.364;14.874;2023-04-24T03:53:11;97500.19;;;9.39;100.00
66547;BME280;53400;50.364;14.874;2023-04-24T03:55:37;97500.47;;;9.43;100.00
66547;BME280;53400;50.364;14.874;2023-04-24T03:58:05;97502.91;;;9.60;100.00
66547;BME280;53400;50.364;14.874;2023-04-24T04:00:31;97503.16;;;9.74;100.00
66547;BME280;53400;50.364;14.874;2023-04-24T04:02:57;97510.13;;;9.80;100.00
66547;BME280;53400;50.364;14.874;2023-04-24T04:05:23;97513.06;;;9.88;100.00
66547;BME280;53400;50.364;14.874;2023-04-24T04:07:49;97513.91;;;9.89;100.00
66547;BME280;53400;50.364;14.874;2023-04-24T04:10:15;97510.13;;;9.85;100.00
66547;BME280;53400;50.364;14.874;2023-04-24T04:12:42;97513.09;;;9.83;100.00
66547;BME280;53400;50.364;14.874;2023-04-24T04:15:11;97504.78;;;9.80;100.00
66547;BME280;53400;50.364;14.874;2023-04-24T04:17:37;97508.25;;;9.60;100.00
66547;BME280;53400;50.364;14.874;2023-04-24T04:20:05;97512.28;;;9.83;100.00
66547;BME280;53400;50.364;14.874;2023-04-24T04:22:37;97511.16;;;9.48;100.00
66547;BME280;53400;50.364;14.874;2023-04-24T04:25:03;97509.78;;;9.20;100.00
66547;BME280;53400;50.364;14.874;2023-04-24T04:27:30;97517.00;;;9.19;100.00
66547;BME280;53400;50.364;14.874;2023-04-24T04:29:58;97506.06;;;9.31;100.00
66547;BME280;53400;50.364;14.874;2023-04-24T04:32:26;97508.78;;;9.47;100.00
66547;BME280;53400;50.364;14.874;2023-04-24T04:34:55;97512.22;;;9.52;100.00
66547;BME280;53400;50.364;14.874;2023-04-24T04:37:21;97514.94;;;9.62;100.00
66547;BME280;53400;50.364;14.874;2023-04-24T04:39:47;97518.91;;;9.39;100.00
66547;BME280;53400;50.364;14.874;2023-04-24T04:42:13;97522.13;;;9.41;100.00
66547;BME280;53400;50.364;14.874;2023-04-24T04:44:39;97519.69;;;9.40;100.00
66547;BME280;53400;50.364;14.874;2023-04-24T04:47:06;97522.88;;;9.37;100.00
66547;BME280;53400;50.364;14.874;2023-04-24T04:49:33;97536.31;;;9.57;100.00
66547;BME280;53400;50.364;14.874;2023-04-24T04:52:00;97541.09;;;9.55;100.00
66547;BME280;53400;50.364;14.874;2023-04-24T04:54:26;97533.91;;;9.66;100.00
66547;BME280;53400;50.364;14.874;2023-04-24T04:56:52;97543.84;;;9.96;100.00
66547;BME280;53400;50.364;14.874;2023-04-24T04:59:18;97540.34;;;9.91;100.00
66547;BME280;53400;50.364;14.874;2023-04-24T05:01:44;97546.25;;;9.93;100.00
66547;BME280;53400;50.364;14.874;2023-04-24T05:04:10;97541.44;;;10.00;100.00
66547;BME280;53400;50.364;14.874;2023-04-24T05:06:37;97548.38;;;9.80;100.00
66547;BME280;53400;50.364;14.874;2023-04-24T05:09:03;97551.81;;;9.71;100.00
66547;BME280;53400;50.364;14.874;2023-04-24T05:11:29;97548.59;;;9.53;100.00
66547;BME280;53400;50.364;14.874;2023-04-24T05:13:56;97549.72;;;9.83;100.00
66547;BME280;53400;50.364;14.874;2023-04-24T05:16:21;97550.25;;;9.85;100.00
66547;BME280;53400;50.364;14.874;2023-04-24T05:18:47;97556.69;;;10.04;100.00
66547;BME280;53400;50.364;14.874;2023-04-24T05:21:13;97555.88;;;10.34;100.00
66547;BME280;53400;50.364;14.874;2023-04-24T05:23:41;97556.69;;;10.40;100.00
66547;BME280;53400;50.364;14.874;2023-04-24T05:26:07;97560.41;;;10.49;100.00
66547;BME280;53400;50.364;14.874;2023-04-24T05:28:33;97560.97;;;10.31;100.00
66547;BME280;53400;50.364;14.874;2023-04-24T05:31:02;97566.59;;;10.45;100.00
66547;BME280;53400;50.364;14.874;2023-04-24T05:33:28;97566.31;;;10.46;100.00
66547;BME280;53400;50.364;14.874;2023-04-24T05:35:54;97574.09;;;10.53;100.00
66547;BME280;53400;50.364;14.874;2023-04-24T05:38:20;97575.66;;;10.64;100.00
66547;BME280;53400;50.364;14.874;2023-04-24T05:40:47;97577.03;;;10.51;100.00
66547;BME280;53400;50.364;14.874;2023-04-24T05:43:13;97579.97;;;10.40;100.00
66547;BME280;53400;50.364;14.874;2023-04-24T05:45:39;97571.66;;;10.51;100.00
66547;BME280;53400;50.364;14.874;2023-04-24T05:48:06;97571.34;;;10.73;100.00
66547;BME280;53400;50.364;14.874;2023-04-24T05:50:32;97575.13;;;10.72;100.00
66547;BME280;53400;50.364;14.874;2023-04-24T05:52:58;97577.44;;;11.05;100.00
66547;BME280;53400;50.364;14.874;2023-04-24T05:55:24;97570.72;;;11.12;100.00
66547;BME280;53400;50.364;14.874;2023-04-24T05:57:53;97577.41;;;11.20;100.00
66547;BME280;53400;50.364;14.874;2023-04-24T06:00:19;97575.38;;;11.46;100.00
66547;BME280;53400;50.364;14.874;2023-04-24T06:02:46;97579.94;;;11.51;100.00
66547;BME280;53400;50.364;14.874;2023-04-24T06:05:12;97579.19;;;11.35;100.00
66547;BME280;53400;50.364;14.874;2023-04-24T06:07:38;97577.25;;;11.51;100.00
66547;BME280;53400;50.364;14.874;2023-04-24T06:10:06;97573.88;;;11.19;100.00
66547;BME280;53400;50.364;14.874;2023-04-24T06:12:33;97569.94;;;11.07;100.00
66547;BME280;53400;50.364;14.874;2023-04-24T06:15:00;97576.31;;;11.16;100.00
66547;BME280;53400;50.364;14.874;2023-04-24T06:17:26;97559.66;;;11.29;100.00
66547;BME280;53400;50.364;14.874;2023-04-24T06:19:52;97564.75;;;11.25;100.00
66547;BME280;53400;50.364;14.874;2023-04-24T06:22:19;97567.41;;;11.36;100.00
66547;BME280;53400;50.364;14.874;2023-04-24T06:24:44;97567.31;;;11.51;100.00
66547;BME280;53400;50.364;14.874;2023-04-24T06:27:11;97567.72;;;11.24;100.00
66547;BME280;53400;50.364;14.874;2023-04-24T06:29:38;97570.94;;;11.26;100.00
66547;BME280;53400;50.364;14.874;2023-04-24T06:32:06;97566.34;;;11.32;100.00
66547;BME280;53400;50.364;14.874;2023-04-24T06:34:33;97579.16;;;11.45;100.00
66547;BME280;53400;50.364;14.874;2023-04-24T06:37:01;97583.97;;;11.43;100.00
66547;BME280;53400;50.364;14.874;2023-04-24T06:39:27;97579.25;;;11.74;100.00
66547;BME280;53400;50.364;14.874;2023-04-24T06:41:53;97585.69;;;11.73;100.00
66547;BME280;53400;50.364;14.874;2023-04-24T06:44:19;97573.53;;;11.41;100.00
66547;BME280;53400;50.364;14.874;2023-04-24T06:46:45;97580.50;;;11.42;100.00
66547;BME280;53400;50.364;14.874;2023-04-24T06:49:13;97577.81;;;11.42;100.00
66547;BME280;53400;50.364;14.874;2023-04-24T06:51:48;97581.66;;;11.26;100.00
66547;BME280;53400;50.364;14.874;2023-04-24T06:54:14;97585.38;;;11.35;100.00
66547;BME280;53400;50.364;14.874;2023-04-24T06:56:40;97585.09;;;11.32;100.00
66547;BME280;53400;50.364;14.874;2023-04-24T06:59:06;97586.34;;;11.55;100.00
66547;BME280;53400;50.364;14.874;2023-04-24T07:01:32;97590.28;;;11.67;100.00
66547;BME280;53400;50.364;14.874;2023-04-24T07:04:04;97592.50;;;11.55;100.00
66547;BME280;53400;50.364;14.874;2023-04-24T07:06:33;97601.06;;;11.57;100.00
66547;BME280;53400;50.364;14.874;2023-04-24T07:09:00;97604.09;;;11.40;100.00
66547;BME280;53400;50.364;14.874;2023-04-24T07:11:27;97599.72;;;11.60;100.00
66547;BME280;53400;50.364;14.874;2023-04-24T07:13:55;97606.19;;;11.54;100.00
66547;BME280;53400;50.364;14.874;2023-04-24T07:16:21;97608.09;;;11.43;100.00
66547;BME280;53400;50.364;14.874;2023-04-24T07:18:47;97603.53;;;11.48;100.00
66547;BME280;53400;50.364;14.874;2023-04-24T07:21:13;97606.28;;;11.28;100.00
66547;BME280;53400;50.364;14.874;2023-04-24T07:23:41;97609.56;;;11.20;100.00
66547;BME280;53400;50.364;14.874;2023-04-24T07:26:08;97601.53;;;11.05;100.00
66547;BME280;53400;50.364;14.874;2023-04-24T07:28:34;97602.81;;;11.28;100.00
66547;BME280;53400;50.364;14.874;2023-04-24T07:31:00;97607.19;;;11.08;100.00
66547;BME280;53400;50.364;14.874;2023-04-24T07:33:25;97602.56;;;11.29;100.00
66547;BME280;53400;50.364;14.874;2023-04-24T07:35:52;97604.88;;;11.46;100.00
66547;BME280;53400;50.364;14.874;2023-04-24T07:38:18;97602.50;;;11.39;100.00
66547;BME280;53400;50.364;14.874;2023-04-24T07:40:49;97612.66;;;11.42;100.00
66547;BME280;53400;50.364;14.874;2023-04-24T07:43:15;97609.84;;;11.68;100.00
66547;BME280;53400;50.364;14.874;2023-04-24T07:45:41;97608.19;;;11.87;100.00
66547;BME280;53400;50.364;14.874;2023-04-24T07:48:08;97610.94;;;11.72;100.00
66547;BME280;53400;50.364;14.874;2023-04-24T07:50:34;97609.81;;;11.78;100.00
66547;BME280;53400;50.364;14.874;2023-04-24T07:53:01;97608.69;;;11.89;100.00
66547;BME280;53400;50.364;14.874;2023-04-24T07:55:28;97615.16;;;11.88;100.00
66547;BME280;53400;50.364;14.874;2023-04-24T07:57:55;97621.41;;;12.18;100.00
66547;BME280;53400;50.364;14.874;2023-04-24T08:00:21;97613.78;;;11.96;100.00
66547;BME280;53400;50.364;14.874;2023-04-24T08:02:47;97612.28;;;12.14;100.00
66547;BME280;53400;50.364;14.874;2023-04-24T08:05:13;97615.50;;;12.16;100.00
66547;BME280;53400;50.364;14.874;2023-04-24T08:07:39;97619.81;;;12.12;100.00
66547;BME280;53400;50.364;14.874;2023-04-24T08:10:06;97618.28;;;12.01;100.00
66547;BME280;53400;50.364;14.874;2023-04-24T08:12:32;97620.84;;;12.21;100.00
66547;BME280;53400;50.364;14.874;2023-04-24T08:15:00;97626.00;;;12.12;100.00
66547;BME280;53400;50.364;14.874;2023-04-24T08:17:26;97612.84;;;12.11;100.00
66547;BME280;53400;50.364;14.874;2023-04-24T08:19:55;97631.50;;;12.26;100.00
66547;BME280;53400;50.364;14.874;2023-04-24T08:22:26;97632.19;;;12.08;100.00
66547;BME280;53400;50.364;14.874;2023-04-24T08:24:54;97627.44;;;11.94;100.00
66547;BME280;53400;50.364;14.874;2023-04-24T08:27:21;97628.69;;;12.12;100.00
66547;BME280;53400;50.364;14.874;2023-04-24T08:29:56;97630.72;;;11.81;100.00
66547;BME280;53400;50.364;14.874;2023-04-24T08:32:23;97633.06;;;11.98;100.00
66547;BME280;53400;50.364;14.874;2023-04-24T08:34:49;97633.28;;;12.02;100.00
66547;BME280;53400;50.364;14.874;2023-04-24T08:37:16;97634.09;;;12.42;100.00
66547;BME280;53400;50.364;14.874;2023-04-24T08:39:42;97638.81;;;12.21;100.00
66547;BME280;53400;50.364;14.874;2023-04-24T08:42:08;97630.81;;;12.15;100.00
66547;BME280;53400;50.364;14.874;2023-04-24T08:44:35;97644.00;;;12.07;100.00
66547;BME280;53400;50.364;14.874;2023-04-24T08:47:02;97636.91;;;11.87;100.00
66547;BME280;53400;50.364;14.874;2023-04-24T08:49:29;97639.84;;;11.80;100.00
66547;BME280;53400;50.364;14.874;2023-04-24T08:51:56;97642.47;;;11.96;100.00
66547;BME280;53400;50.364;14.874;2023-04-24T08:54:22;97644.50;;;12.14;100.00
66547;BME280;53400;50.364;14.874;2023-04-24T08:56:50;97641.63;;;12.00;100.00
66547;BME280;53400;50.364;14.874;2023-04-24T08:59:17;97636.09;;;12.26;100.00
66547;BME280;53400;50.364;14.874;2023-04-24T09:01:45;97634.97;;;12.32;100.00
66547;BME280;53400;50.364;14.874;2023-04-24T09:04:12;97636.63;;;12.28;100.00
66547;BME280;53400;50.364;14.874;2023-04-24T09:06:42;97637.91;;;11.96;100.00
66547;BME280;53400;50.364;14.874;2023-04-24T09:09:10;97637.03;;;12.06;100.00
66547;BME280;53400;50.364;14.874;2023-04-24T09:11:37;97634.88;;;12.08;100.00
66547;BME280;53400;50.364;14.874;2023-04-24T09:14:03;97635.88;;;12.17;100.00
66547;BME280;53400;50.364;14.874;2023-04-24T09:16:29;97632.69;;;12.49;100.00
66547;BME280;53400;50.364;14.874;2023-04-24T09:18:55;97634.59;;;12.49;100.00
66547;BME280;53400;50.364;14.874;2023-04-24T09:21:22;97635.59;;;12.58;100.00
66547;BME280;53400;50.364;14.874;2023-04-24T09:23:59;97631.34;;;12.18;100.00
66547;BME280;53400;50.364;14.874;2023-04-24T09:26:25;97635.16;;;12.46;100.00
66547;BME280;53400;50.364;14.874;2023-04-24T09:28:51;97632.47;;;12.75;100.00
66547;BME280;53400;50.364;14.874;2023-04-24T09:31:19;97631.91;;;12.49;100.00
66547;BME280;53400;50.364;14.874;2023-04-24T09:33:54;97637.66;;;12.66;100.00
66547;BME280;53400;50.364;14.874;2023-04-24T09:36:26;97625.88;;;12.62;100.00
66547;BME280;53400;50.364;14.874;2023-04-24T09:38:55;97631.03;;;12.53;100.00
66547;BME280;53400;50.364;14.874;2023-04-24T09:41:24;97629.00;;;12.40;100.00
66547;BME280;53400;50.364;14.874;2023-04-24T09:43:53;97623.63;;;12.40;100.00
66547;BME280;53400;50.364;14.874;2023-04-24T09:46:19;97627.56;;;12.53;100.00
66547;BME280;53400;50.364;14.874;2023-04-24T09:48:47;97625.38;;;12.60;100.00
66547;BME280;53400;50.364;14.874;2023-04-24T09:51:12;97628.00;;;12.65;100.00
66547;BME280;53400;50.364;14.874;2023-04-24T09:53:38;97621.00;;;12.93;100.00
66547;BME280;53400;50.364;14.874;2023-04-24T09:56:08;97624.31;;;12.85;100.00
66547;BME280;53400;50.364;14.874;2023-04-24T09:58:36;97628.72;;;12.42;100.00
66547;BME280;53400;50.364;14.874;2023-04-24T10:01:02;97630.56;;;12.46;100.00
66547;BME280;53400;50.364;14.874;2023-04-24T10:03:30;97623.59;;;12.45;100.00
66547;BME280;53400;50.364;14.874;2023-04-24T10:05:58;97626.34;;;12.35;100.00
66547;BME280;53400;50.364;14.874;2023-04-24T10:08:33;97630.16;;;11.89;100.00
66547;BME280;53400;50.364;14.874;2023-04-24T10:11:00;97624.00;;;12.28;100.00
66547;BME280;53400;50.364;14.874;2023-04-24T10:13:26;97628.25;;;12.34;100.00
66547;BME280;53400;50.364;14.874;2023-04-24T10:15:53;97620.78;;;12.26;100.00
66547;BME280;53400;50.364;14.874;2023-04-24T10:18:20;97619.84;;;12.07;100.00
66547;BME280;53400;50.364;14.874;2023-04-24T10:20:47;97625.31;;;11.91;100.00
66547;BME280;53400;50.364;14.874;2023-04-24T10:23:14;97622.13;;;11.84;100.00
66547;BME280;53400;50.364;14.874;2023-04-24T10:25:40;97622.41;;;11.88;100.00
66547;BME280;53400;50.364;14.874;2023-04-24T10:28:06;97624.97;;;12.03;100.00
66547;BME280;53400;50.364;14.874;2023-04-24T10:30:34;97620.44;;;11.99;100.00
66547;BME280;53400;50.364;14.874;2023-04-24T10:33:02;97628.88;;;12.21;99.43
66547;BME280;53400;50.364;14.874;2023-04-24T10:35:31;97622.22;;;12.13;100.00
66547;BME280;53400;50.364;14.874;2023-04-24T10:37:59;97622.63;;;12.31;100.00
66547;BME280;53400;50.364;14.874;2023-04-24T10:40:30;97624.63;;;12.15;97.28
66547;BME280;53400;50.364;14.874;2023-04-24T10:42:57;97626.78;;;12.13;99.44
66547;BME280;53400;50.364;14.874;2023-04-24T10:45:23;97632.72;;;12.10;100.00
66547;BME280;53400;50.364;14.874;2023-04-24T10:47:57;97629.28;;;12.38;98.77
66547;BME280;53400;50.364;14.874;2023-04-24T10:50:26;97631.84;;;12.20;97.60
66547;BME280;53400;50.364;14.874;2023-04-24T10:52:54;97635.88;;;12.17;96.87
66547;BME280;53400;50.364;14.874;2023-04-24T10:55:44;97628.34;;;12.53;96.74
66547;BME280;53400;50.364;14.874;2023-04-24T10:58:11;97633.16;;;12.56;96.02
66547;BME280;53400;50.364;14.874;2023-04-24T11:00:38;97626.50;;;12.54;95.67
66547;BME280;53400;50.364;14.874;2023-04-24T11:03:05;97628.19;;;12.74;95.36
66547;BME280;53400;50.364;14.874;2023-04-24T11:05:55;97618.88;;;12.90;92.66
66547;BME280;53400;50.364;14.874;2023-04-24T11:08:26;97618.19;;;13.08;90.54
66547;BME280;53400;50.364;14.874;2023-04-24T11:11:01;97618.41;;;13.12;90.10
66547;BME280;53400;50.364;14.874;2023-04-24T11:16:34;97608.75;;;13.35;88.28
66547;BME280;53400;50.364;14.874;2023-04-24T11:19:03;97610.16;;;13.51;89.32
66547;BME280;53400;50.364;14.874;2023-04-24T11:21:39;97611.66;;;12.91;91.49
66547;BME280;53400;50.364;14.874;2023-04-24T11:24:24;97606.03;;;13.11;91.28
66547;BME280;53400;50.364;14.874;2023-04-24T11:26:51;97597.66;;;13.18;91.05
66547;BME280;53400;50.364;14.874;2023-04-24T11:29:20;97605.44;;;13.62;91.25
66547;BME280;53400;50.364;14.874;2023-04-24T11:31:47;97611.34;;;13.83;87.94
66547;BME280;53400;50.364;14.874;2023-04-24T11:34:20;97611.00;;;13.71;88.66
66547;BME280;53400;50.364;14.874;2023-04-24T11:36:48;97608.66;;;14.02;88.38
66547;BME280;53400;50.364;14.874;2023-04-24T11:39:15;97604.81;;;14.08;86.95
66547;BME280;53400;50.364;14.874;2023-04-24T11:41:41;97605.81;;;14.31;82.03
66547;BME280;53400;50.364;14.874;2023-04-24T11:44:09;97601.84;;;14.75;82.59
66547;BME280;53400;50.364;14.874;2023-04-24T11:46:35;97601.72;;;14.53;82.15
66547;BME280;53400;50.364;14.874;2023-04-24T11:49:03;97593.00;;;14.88;79.77
66547;BME280;53400;50.364;14.874;2023-04-24T11:51:29;97596.91;;;14.96;79.52
66547;BME280;53400;50.364;14.874;2023-04-24T11:53:57;97590.13;;;15.12;78.18
66547;BME280;53400;50.364;14.874;2023-04-24T11:56:24;97585.81;;;14.98;79.70
66547;BME280;53400;50.364;14.874;2023-04-24T11:58:52;97585.72;;;15.17;81.28
66547;BME280;53400;50.364;14.874;2023-04-24T12:01:18;97577.13;;;15.01;81.79
66547;BME280;53400;50.364;14.874;2023-04-24T12:03:48;97581.09;;;15.03;82.25
66547;BME280;53400;50.364;14.874;2023-04-24T12:06:14;97587.31;;;15.31;81.58
66547;BME280;53400;50.364;14.874;2023-04-24T12:08:40;97590.28;;;14.75;82.28
66547;BME280;53400;50.364;14.874;2023-04-24T12:11:08;97574.78;;;14.66;82.48
66547;BME280;53400;50.364;14.874;2023-04-24T12:13:34;97580.25;;;15.22;81.41
66547;BME280;53400;50.364;14.874;2023-04-24T12:16:02;97586.53;;;15.31;81.63
66547;BME280;53400;50.364;14.874;2023-04-24T12:18:29;97581.03;;;15.08;79.92
66547;BME280;53400;50.364;14.874;2023-04-24T12:20:55;97577.41;;;15.27;79.83
66547;BME280;53400;50.364;14.874;2023-04-24T12:23:33;97582.50;;;15.56;79.49
66547;BME280;53400;50.364;14.874;2023-04-24T12:26:03;97582.09;;;15.63;78.13
66547;BME280;53400;50.364;14.874;2023-04-24T12:28:36;97571.69;;;15.70;79.40
66547;BME280;53400;50.364;14.874;2023-04-24T12:31:02;97575.63;;;15.22;78.12
66547;BME280;53400;50.364;14.874;2023-04-24T12:33:33;97572.44;;;15.34;79.04
66547;BME280;53400;50.364;14.874;2023-04-24T12:35:59;97568.22;;;15.55;77.39
66547;BME280;53400;50.364;14.874;2023-04-24T12:38:27;97560.13;;;15.55;77.89
66547;BME280;53400;50.364;14.874;2023-04-24T12:41:02;97566.06;;;15.16;78.51
66547;BME280;53400;50.364;14.874;2023-04-24T12:43:28;97557.06;;;14.93;79.63
66547;BME280;53400;50.364;14.874;2023-04-24T12:45:56;97558.72;;;15.44;79.73
66547;BME280;53400;50.364;14.874;2023-04-24T12:48:23;97557.72;;;15.68;77.83